Main page
METAR-TAF:

METAR-TAF

Airports :

Kangerlussuaq Airport

Kangerlussuaq, Greenland

latitude: 67-01N, longitude: 050-42W, elevation: 50 m

Current weather observation

The report was made 39 minutes ago, at 03:50 UTC
Wind 7 kt from the Northeast
Temperature 6°C
Humidity 75%
Pressure 1016 hPa
Visibility 10 km or more

METAR: BGSF 180350Z AUTO 05007KT 9999NDV FEW210/// 06/02 Q1016

Time: 02:29 (04:29 UTC)

Forecast

The report was made 5 hours and 19 minutes ago, at 23:10 UTC
Forecast valid from 18 at 00 UTC to 19 at 06 UTC
Wind 8 kt from the East/Northeast
Visibility 10 km or more
Few clouds at a height of 20000 ft

TAF: BGSF 172310Z 1800/1906 06008KT 9999 FEW200

Weather observations and forecasts of more than 4000 airports (METAR and TAF reports).

The available stations are represented by yellow and red dots on the map.

Hover mouse over dot to see the name of the station.

Then click to see weather observations and forecasts.

To change the map : click on the green buttons with a black cross to zoom in, on the green button with a dash to zoom out, or on the green arrows for adjacent maps.


METAR-TAF: